sensor_id;sensor_type;location;lat;lon;timestamp;temperature;humidity
9393;DHT22;4736;52.508;13.422;2022-07-12T00:00:44;16.00;1.00
9393;DHT22;4736;52.508;13.422;2022-07-12T00:03:48;16.00;1.00
9393;DHT22;4736;52.508;13.422;2022-07-12T00:06:51;16.00;1.00
9393;DHT22;4736;52.508;13.422;2022-07-12T00:09:54;15.90;1.00
9393;DHT22;4736;52.508;13.422;2022-07-12T00:12:58;15.90;1.00
9393;DHT22;4736;52.508;13.422;2022-07-12T00:16:01;15.90;1.00
9393;DHT22;4736;52.508;13.422;2022-07-12T00:19:06;15.90;1.00
9393;DHT22;4736;52.508;13.422;2022-07-12T00:22:09;15.90;1.00
9393;DHT22;4736;52.508;13.422;2022-07-12T00:25:15;15.90;1.00
9393;DHT22;4736;52.508;13.422;2022-07-12T00:28:20;15.80;1.00
9393;DHT22;4736;52.508;13.422;2022-07-12T00:31:23;15.80;1.00
9393;DHT22;4736;52.508;13.422;2022-07-12T00:34:27;15.80;1.00
9393;DHT22;4736;52.508;13.422;2022-07-12T00:37:30;15.70;1.00
9393;DHT22;4736;52.508;13.422;2022-07-12T00:40:33;15.70;1.00
9393;DHT22;4736;52.508;13.422;2022-07-12T00:43:37;15.60;1.00
9393;DHT22;4736;52.508;13.422;2022-07-12T00:46:40;15.60;1.00
9393;DHT22;4736;52.508;13.422;2022-07-12T00:49:46;15.60;1.00
9393;DHT22;4736;52.508;13.422;2022-07-12T00:52:52;15.50;1.00
9393;DHT22;4736;52.508;13.422;2022-07-12T00:55:57;15.60;1.00
9393;DHT22;4736;52.508;13.422;2022-07-12T00:59:00;15.60;1.00
9393;DHT22;4736;52.508;13.422;2022-07-12T01:02:03;15.50;1.00
9393;DHT22;4736;52.508;13.422;2022-07-12T01:05:08;15.40;1.00
9393;DHT22;4736;52.508;13.422;2022-07-12T01:08:11;15.40;1.00
9393;DHT22;4736;52.508;13.422;2022-07-12T01:11:16;15.40;1.00
9393;DHT22;4736;52.508;13.422;2022-07-12T01:14:21;15.40;1.00
9393;DHT22;4736;52.508;13.422;2022-07-12T01:17:26;15.30;1.00
9393;DHT22;4736;52.508;13.422;2022-07-12T01:20:31;15.20;1.00
9393;DHT22;4736;52.508;13.422;2022-07-12T01:23:37;15.20;1.00
9393;DHT22;4736;52.508;13.422;2022-07-12T01:26:46;15.20;1.00
9393;DHT22;4736;52.508;13.422;2022-07-12T01:29:49;15.10;1.00
9393;DHT22;4736;52.508;13.422;2022-07-12T01:32:52;15.10;1.00
9393;DHT22;4736;52.508;13.422;2022-07-12T01:35:56;15.10;1.00
9393;DHT22;4736;52.508;13.422;2022-07-12T01:39:01;15.00;1.00
9393;DHT22;4736;52.508;13.422;2022-07-12T01:42:04;15.00;1.00
9393;DHT22;4736;52.508;13.422;2022-07-12T01:45:08;15.00;1.00
9393;DHT22;4736;52.508;13.422;2022-07-12T01:48:11;14.90;1.00
9393;DHT22;4736;52.508;13.422;2022-07-12T01:51:14;14.90;1.00
9393;DHT22;4736;52.508;13.422;2022-07-12T01:54:19;14.90;1.00
9393;DHT22;4736;52.508;13.422;2022-07-12T01:57:21;14.90;1.00
9393;DHT22;4736;52.508;13.422;2022-07-12T02:00:24;14.90;1.00
9393;DHT22;4736;52.508;13.422;2022-07-12T02:03:29;14.80;1.00
9393;DHT22;4736;52.508;13.422;2022-07-12T02:06:32;14.70;1.00
9393;DHT22;4736;52.508;13.422;2022-07-12T02:09:37;14.70;1.00
9393;DHT22;4736;52.508;13.422;2022-07-12T02:12:41;14.70;1.00
9393;DHT22;4736;52.508;13.422;2022-07-12T02:15:44;14.60;1.00
9393;DHT22;4736;52.508;13.422;2022-07-12T02:18:47;14.60;1.00
9393;DHT22;4736;52.508;13.422;2022-07-12T02:21:49;14.60;1.00
9393;DHT22;4736;52.508;13.422;2022-07-12T02:24:54;14.60;1.00
9393;DHT22;4736;52.508;13.422;2022-07-12T02:28:00;14.60;1.00
9393;DHT22;4736;52.508;13.422;2022-07-12T02:31:03;14.50;1.00
9393;DHT22;4736;52.508;13.422;2022-07-12T02:34:08;14.50;1.00
9393;DHT22;4736;52.508;13.422;2022-07-12T02:37:11;14.40;1.00
9393;DHT22;4736;52.508;13.422;2022-07-12T02:40:15;14.40;1.00
9393;DHT22;4736;52.508;13.422;2022-07-12T02:43:37;14.40;1.00
9393;DHT22;4736;52.508;13.422;2022-07-12T02:46:40;14.40;1.00
9393;DHT22;4736;52.508;13.422;2022-07-12T02:49:43;14.40;1.00
9393;DHT22;4736;52.508;13.422;2022-07-12T02:52:46;14.40;1.00
9393;DHT22;4736;52.508;13.422;2022-07-12T02:55:51;14.40;1.00
9393;DHT22;4736;52.508;13.422;2022-07-12T02:58:54;14.30;1.00
9393;DHT22;4736;52.508;13.422;2022-07-12T03:01:57;14.30;1.00
9393;DHT22;4736;52.508;13.422;2022-07-12T03:05:00;14.20;1.00
9393;DHT22;4736;52.508;13.422;2022-07-12T03:08:03;14.30;1.00
9393;DHT22;4736;52.508;13.422;2022-07-12T03:11:08;14.30;1.00
9393;DHT22;4736;52.508;13.422;2022-07-12T03:14:11;14.20;1.00
9393;DHT22;4736;52.508;13.422;2022-07-12T03:17:14;14.30;1.00
9393;DHT22;4736;52.508;13.422;2022-07-12T03:20:17;14.20;1.00
9393;DHT22;4736;52.508;13.422;2022-07-12T03:23:20;14.20;1.00
9393;DHT22;4736;52.508;13.422;2022-07-12T03:26:24;14.20;1.00
9393;DHT22;4736;52.508;13.422;2022-07-12T03:29:30;14.30;1.00
9393;DHT22;4736;52.508;13.422;2022-07-12T03:32:33;14.30;1.00
9393;DHT22;4736;52.508;13.422;2022-07-12T03:35:36;14.30;1.00
9393;DHT22;4736;52.508;13.422;2022-07-12T03:38:39;14.30;1.00
9393;DHT22;4736;52.508;13.422;2022-07-12T03:41:45;14.30;1.00
9393;DHT22;4736;52.508;13.422;2022-07-12T03:44:48;14.40;1.00
9393;DHT22;4736;52.508;13.422;2022-07-12T03:47:51;14.40;1.00
9393;DHT22;4736;52.508;13.422;2022-07-12T03:50:54;14.50;1.00
9393;DHT22;4736;52.508;13.422;2022-07-12T03:53:57;14.50;1.00
9393;DHT22;4736;52.508;13.422;2022-07-12T03:57:02;14.50;1.00
9393;DHT22;4736;52.508;13.422;2022-07-12T04:00:18;14.60;1.00
9393;DHT22;4736;52.508;13.422;2022-07-12T04:03:21;14.60;1.00
9393;DHT22;4736;52.508;13.422;2022-07-12T04:06:25;14.70;1.00
9393;DHT22;4736;52.508;13.422;2022-07-12T04:09:28;14.80;1.00
9393;DHT22;4736;52.508;13.422;2022-07-12T04:12:32;14.80;1.00
9393;DHT22;4736;52.508;13.422;2022-07-12T04:15:35;14.90;1.00
9393;DHT22;4736;52.508;13.422;2022-07-12T04:18:38;14.90;1.00
9393;DHT22;4736;52.508;13.422;2022-07-12T04:21:41;15.00;1.00
9393;DHT22;4736;52.508;13.422;2022-07-12T04:24:44;15.00;1.00
9393;DHT22;4736;52.508;13.422;2022-07-12T04:27:49;15.10;1.00
9393;DHT22;4736;52.508;13.422;2022-07-12T04:30:52;15.20;1.00
9393;DHT22;4736;52.508;13.422;2022-07-12T04:33:55;15.20;1.00
9393;DHT22;4736;52.508;13.422;2022-07-12T04:36:58;15.30;1.00
9393;DHT22;4736;52.508;13.422;2022-07-12T04:40:01;15.30;1.00
9393;DHT22;4736;52.508;13.422;2022-07-12T04:43:06;15.40;1.00
9393;DHT22;4736;52.508;13.422;2022-07-12T04:46:09;15.40;1.00
9393;DHT22;4736;52.508;13.422;2022-07-12T04:49:12;15.50;1.00
9393;DHT22;4736;52.508;13.422;2022-07-12T04:52:15;15.60;1.00
9393;DHT22;4736;52.508;13.422;2022-07-12T04:55:18;15.70;1.00
9393;DHT22;4736;52.508;13.422;2022-07-12T04:58:23;15.80;1.00
9393;DHT22;4736;52.508;13.422;2022-07-12T05:01:26;15.90;1.00
9393;DHT22;4736;52.508;13.422;2022-07-12T05:04:31;16.10;1.00
9393;DHT22;4736;52.508;13.422;2022-07-12T05:07:34;16.30;1.00
9393;DHT22;4736;52.508;13.422;2022-07-12T05:10:37;16.50;1.00
9393;DHT22;4736;52.508;13.422;2022-07-12T05:13:41;16.90;1.00
9393;DHT22;4736;52.508;13.422;2022-07-12T05:16:44;17.10;1.00
9393;DHT22;4736;52.508;13.422;2022-07-12T05:19:47;17.40;1.00
9393;DHT22;4736;52.508;13.422;2022-07-12T05:22:50;17.70;1.00
9393;DHT22;4736;52.508;13.422;2022-07-12T05:25:53;18.00;1.00
9393;DHT22;4736;52.508;13.422;2022-07-12T05:28:58;18.20;1.00
9393;DHT22;4736;52.508;13.422;2022-07-12T05:32:01;18.50;1.00
9393;DHT22;4736;52.508;13.422;2022-07-12T05:35:10;18.80;1.00
9393;DHT22;4736;52.508;13.422;2022-07-12T05:38:14;19.10;1.00
9393;DHT22;4736;52.508;13.422;2022-07-12T05:41:17;19.40;1.00
9393;DHT22;4736;52.508;13.422;2022-07-12T05:44:21;19.70;1.00
9393;DHT22;4736;52.508;13.422;2022-07-12T05:47:24;20.00;1.00
9393;DHT22;4736;52.508;13.422;2022-07-12T05:50:27;20.20;1.00
9393;DHT22;4736;52.508;13.422;2022-07-12T05:53:31;20.50;1.00
9393;DHT22;4736;52.508;13.422;2022-07-12T05:56:33;20.80;1.00
9393;DHT22;4736;52.508;13.422;2022-07-12T05:59:37;21.00;1.00
9393;DHT22;4736;52.508;13.422;2022-07-12T06:02:40;21.20;1.00
9393;DHT22;4736;52.508;13.422;2022-07-12T06:05:43;21.30;1.00
9393;DHT22;4736;52.508;13.422;2022-07-12T06:08:46;21.60;1.00
9393;DHT22;4736;52.508;13.422;2022-07-12T06:11:49;21.50;1.00
9393;DHT22;4736;52.508;13.422;2022-07-12T06:14:55;21.80;1.00
9393;DHT22;4736;52.508;13.422;2022-07-12T06:17:58;22.00;1.00
9393;DHT22;4736;52.508;13.422;2022-07-12T06:21:01;22.10;1.00
9393;DHT22;4736;52.508;13.422;2022-07-12T06:24:05;22.40;1.00
9393;DHT22;4736;52.508;13.422;2022-07-12T06:27:08;22.60;1.00
9393;DHT22;4736;52.508;13.422;2022-07-12T06:30:12;22.70;1.00
9393;DHT22;4736;52.508;13.422;2022-07-12T06:33:15;22.70;1.00
9393;DHT22;4736;52.508;13.422;2022-07-12T06:36:18;22.90;1.00
9393;DHT22;4736;52.508;13.422;2022-07-12T06:39:21;23.00;1.00
9393;DHT22;4736;52.508;13.422;2022-07-12T06:42:24;23.20;1.00
9393;DHT22;4736;52.508;13.422;2022-07-12T06:45:28;23.50;1.00
9393;DHT22;4736;52.508;13.422;2022-07-12T06:48:31;23.50;1.00
9393;DHT22;4736;52.508;13.422;2022-07-12T06:51:34;23.50;1.00
9393;DHT22;4736;52.508;13.422;2022-07-12T06:54:40;23.80;1.00
9393;DHT22;4736;52.508;13.422;2022-07-12T06:57:43;24.00;1.00
9393;DHT22;4736;52.508;13.422;2022-07-12T07:00:47;24.40;1.00
9393;DHT22;4736;52.508;13.422;2022-07-12T07:03:50;24.70;1.00
9393;DHT22;4736;52.508;13.422;2022-07-12T07:06:54;24.70;1.00
9393;DHT22;4736;52.508;13.422;2022-07-12T07:09:57;24.60;1.00
9393;DHT22;4736;52.508;13.422;2022-07-12T07:13:00;24.60;1.00
9393;DHT22;4736;52.508;13.422;2022-07-12T07:16:05;24.50;1.00
9393;DHT22;4736;52.508;13.422;2022-07-12T07:19:08;24.50;1.00
9393;DHT22;4736;52.508;13.422;2022-07-12T07:22:11;24.60;1.00
9393;DHT22;4736;52.508;13.422;2022-07-12T07:25:14;23.80;1.00
9393;DHT22;4736;52.508;13.422;2022-07-12T07:28:17;23.80;1.00
9393;DHT22;4736;52.508;13.422;2022-07-12T07:31:45;23.90;1.00
9393;DHT22;4736;52.508;13.422;2022-07-12T07:34:47;23.90;1.00
9393;DHT22;4736;52.508;13.422;2022-07-12T07:37:51;23.80;1.00
9393;DHT22;4736;52.508;13.422;2022-07-12T07:40:55;23.80;1.00
9393;DHT22;4736;52.508;13.422;2022-07-12T07:43:58;23.60;1.00
9393;DHT22;4736;52.508;13.422;2022-07-12T07:47:03;23.50;1.00
9393;DHT22;4736;52.508;13.422;2022-07-12T07:50:07;23.50;1.00
9393;DHT22;4736;52.508;13.422;2022-07-12T07:53:10;23.50;1.00
9393;DHT22;4736;52.508;13.422;2022-07-12T07:56:12;23.50;1.00
9393;DHT22;4736;52.508;13.422;2022-07-12T07:59:15;23.30;1.00
9393;DHT22;4736;52.508;13.422;2022-07-12T08:02:20;23.30;1.00
9393;DHT22;4736;52.508;13.422;2022-07-12T08:05:23;23.30;1.00
9393;DHT22;4736;52.508;13.422;2022-07-12T08:08:29;23.40;1.00
9393;DHT22;4736;52.508;13.422;2022-07-12T08:11:52;23.30;1.00
9393;DHT22;4736;52.508;13.422;2022-07-12T08:14:55;23.00;1.00
9393;DHT22;4736;52.508;13.422;2022-07-12T08:18:00;22.90;1.00
9393;DHT22;4736;52.508;13.422;2022-07-12T08:21:04;22.60;1.00
9393;DHT22;4736;52.508;13.422;2022-07-12T08:24:07;22.60;1.00
9393;DHT22;4736;52.508;13.422;2022-07-12T08:27:10;22.70;1.00
9393;DHT22;4736;52.508;13.422;2022-07-12T08:30:13;22.80;1.00
9393;DHT22;4736;52.508;13.422;2022-07-12T08:33:18;22.80;1.00
9393;DHT22;4736;52.508;13.422;2022-07-12T08:36:21;22.80;1.00
9393;DHT22;4736;52.508;13.422;2022-07-12T08:39:24;22.90;1.00
9393;DHT22;4736;52.508;13.422;2022-07-12T08:42:31;23.00;1.00
9393;DHT22;4736;52.508;13.422;2022-07-12T08:45:34;23.20;1.00
9393;DHT22;4736;52.508;13.422;2022-07-12T08:48:53;23.30;1.00
9393;DHT22;4736;52.508;13.422;2022-07-12T08:51:56;23.30;1.00
9393;DHT22;4736;52.508;13.422;2022-07-12T08:54:59;23.40;1.00
9393;DHT22;4736;52.508;13.422;2022-07-12T08:58:04;23.60;1.00
9393;DHT22;4736;52.508;13.422;2022-07-12T09:01:07;23.70;1.00
9393;DHT22;4736;52.508;13.422;2022-07-12T09:04:16;23.80;1.00
9393;DHT22;4736;52.508;13.422;2022-07-12T09:07:20;23.80;1.00
9393;DHT22;4736;52.508;13.422;2022-07-12T09:10:23;24.00;1.00
9393;DHT22;4736;52.508;13.422;2022-07-12T09:13:45;24.20;1.00
9393;DHT22;4736;52.508;13.422;2022-07-12T09:16:59;24.30;1.00
9393;DHT22;4736;52.508;13.422;2022-07-12T09:20:09;24.30;1.00
9393;DHT22;4736;52.508;13.422;2022-07-12T09:23:13;24.30;1.00
9393;DHT22;4736;52.508;13.422;2022-07-12T09:26:16;24.40;1.00
9393;DHT22;4736;52.508;13.422;2022-07-12T09:29:20;24.60;1.00
9393;DHT22;4736;52.508;13.422;2022-07-12T09:32:23;24.50;1.00
9393;DHT22;4736;52.508;13.422;2022-07-12T09:36:00;24.50;1.00
9393;DHT22;4736;52.508;13.422;2022-07-12T09:39:09;24.50;1.00
9393;DHT22;4736;52.508;13.422;2022-07-12T09:42:13;24.50;1.00
9393;DHT22;4736;52.508;13.422;2022-07-12T09:45:17;24.50;1.00
9393;DHT22;4736;52.508;13.422;2022-07-12T09:48:25;24.40;1.00
9393;DHT22;4736;52.508;13.422;2022-07-12T09:51:32;24.50;1.00
9393;DHT22;4736;52.508;13.422;2022-07-12T09:54:40;24.70;1.00
9393;DHT22;4736;52.508;13.422;2022-07-12T09:57:44;24.70;1.00
9393;DHT22;4736;52.508;13.422;2022-07-12T10:00:50;24.70;1.00
9393;DHT22;4736;52.508;13.422;2022-07-12T10:03:54;24.70;1.00
9393;DHT22;4736;52.508;13.422;2022-07-12T10:07:01;24.90;1.00
9393;DHT22;4736;52.508;13.422;2022-07-12T10:10:05;25.10;1.00
9393;DHT22;4736;52.508;13.422;2022-07-12T10:13:08;24.90;1.00
9393;DHT22;4736;52.508;13.422;2022-07-12T10:16:14;24.90;1.00
9393;DHT22;4736;52.508;13.422;2022-07-12T10:19:24;25.10;1.00
9393;DHT22;4736;52.508;13.422;2022-07-12T10:22:28;25.20;1.00
9393;DHT22;4736;52.508;13.422;2022-07-12T10:25:33;25.10;1.00
9393;DHT22;4736;52.508;13.422;2022-07-12T10:29:03;25.10;1.00
9393;DHT22;4736;52.508;13.422;2022-07-12T10:32:20;25.20;1.00
9393;DHT22;4736;52.508;13.422;2022-07-12T10:35:25;25.30;1.00
9393;DHT22;4736;52.508;13.422;2022-07-12T10:38:30;25.10;1.00
9393;DHT22;4736;52.508;13.422;2022-07-12T10:41:33;25.10;1.00
9393;DHT22;4736;52.508;13.422;2022-07-12T10:44:37;25.10;1.00
9393;DHT22;4736;52.508;13.422;2022-07-12T10:47:53;25.20;1.00
9393;DHT22;4736;52.508;13.422;2022-07-12T10:50:57;25.30;1.00
9393;DHT22;4736;52.508;13.422;2022-07-12T10:54:19;25.40;1.00
9393;DHT22;4736;52.508;13.422;2022-07-12T10:57:38;25.50;1.00
9393;DHT22;4736;52.508;13.422;2022-07-12T11:00:41;25.40;1.00
9393;DHT22;4736;52.508;13.422;2022-07-12T11:03:49;25.50;1.00
9393;DHT22;4736;52.508;13.422;2022-07-12T11:06:54;25.40;1.00
9393;DHT22;4736;52.508;13.422;2022-07-12T11:10:00;25.50;1.00
9393;DHT22;4736;52.508;13.422;2022-07-12T11:13:22;25.40;1.00
9393;DHT22;4736;52.508;13.422;2022-07-12T11:16:28;25.70;1.00
9393;DHT22;4736;52.508;13.422;2022-07-12T11:19:32;25.80;1.00
9393;DHT22;4736;52.508;13.422;2022-07-12T11:22:38;25.90;1.00
9393;DHT22;4736;52.508;13.422;2022-07-12T11:25:44;26.30;1.00
9393;DHT22;4736;52.508;13.422;2022-07-12T11:28:48;26.60;1.00
9393;DHT22;4736;52.508;13.422;2022-07-12T11:31:59;26.70;1.00
9393;DHT22;4736;52.508;13.422;2022-07-12T11:35:19;26.80;1.00
9393;DHT22;4736;52.508;13.422;2022-07-12T11:38:24;26.80;1.00
9393;DHT22;4736;52.508;13.422;2022-07-12T11:41:37;26.80;1.00
9393;DHT22;4736;52.508;13.422;2022-07-12T11:44:44;26.80;1.00
9393;DHT22;4736;52.508;13.422;2022-07-12T11:47:47;26.60;1.00
9393;DHT22;4736;52.508;13.422;2022-07-12T11:50:51;26.40;1.00
9393;DHT22;4736;52.508;13.422;2022-07-12T11:53:56;26.40;1.00
9393;DHT22;4736;52.508;13.422;2022-07-12T11:57:09;26.40;1.00
9393;DHT22;4736;52.508;13.422;2022-07-12T12:00:17;26.50;1.00
9393;DHT22;4736;52.508;13.422;2022-07-12T12:03:21;26.70;1.00
9393;DHT22;4736;52.508;13.422;2022-07-12T12:06:24;26.70;1.00
9393;DHT22;4736;52.508;13.422;2022-07-12T12:09:27;26.70;1.00
9393;DHT22;4736;52.508;13.422;2022-07-12T12:12:42;26.70;1.00
9393;DHT22;4736;52.508;13.422;2022-07-12T12:15:50;26.80;1.00
9393;DHT22;4736;52.508;13.422;2022-07-12T12:18:54;26.90;1.00
9393;DHT22;4736;52.508;13.422;2022-07-12T12:21:57;27.00;1.00
9393;DHT22;4736;52.508;13.422;2022-07-12T12:25:00;26.90;1.00
9393;DHT22;4736;52.508;13.422;2022-07-12T12:28:11;26.80;1.00
9393;DHT22;4736;52.508;13.422;2022-07-12T12:31:17;26.70;1.00
9393;DHT22;4736;52.508;13.422;2022-07-12T12:34:21;26.70;1.00
9393;DHT22;4736;52.508;13.422;2022-07-12T12:37:24;26.80;1.00
9393;DHT22;4736;52.508;13.422;2022-07-12T12:40:30;27.00;1.00
9393;DHT22;4736;52.508;13.422;2022-07-12T12:43:34;27.00;1.00
9393;DHT22;4736;52.508;13.422;2022-07-12T12:46:49;26.90;1.00
9393;DHT22;4736;52.508;13.422;2022-07-12T12:49:55;26.90;1.00
9393;DHT22;4736;52.508;13.422;2022-07-12T12:52:58;26.90;1.00
9393;DHT22;4736;52.508;13.422;2022-07-12T12:56:11;26.90;1.00
9393;DHT22;4736;52.508;13.422;2022-07-12T12:59:17;27.00;1.00
9393;DHT22;4736;52.508;13.422;2022-07-12T13:02:19;27.10;1.00
9393;DHT22;4736;52.508;13.422;2022-07-12T13:05:27;27.20;1.00
9393;DHT22;4736;52.508;13.422;2022-07-12T13:08:31;27.20;1.00
9393;DHT22;4736;52.508;13.422;2022-07-12T13:11:35;27.30;1.00
9393;DHT22;4736;52.508;13.422;2022-07-12T13:14:39;27.20;1.00
9393;DHT22;4736;52.508;13.422;2022-07-12T13:17:44;27.10;1.00
9393;DHT22;4736;52.508;13.422;2022-07-12T13:20:47;26.90;1.00
9393;DHT22;4736;52.508;13.422;2022-07-12T13:23:50;26.80;1.00
9393;DHT22;4736;52.508;13.422;2022-07-12T13:26:53;26.80;1.00
9393;DHT22;4736;52.508;13.422;2022-07-12T13:29:57;26.90;1.00
9393;DHT22;4736;52.508;13.422;2022-07-12T13:33:00;26.90;1.00
9393;DHT22;4736;52.508;13.422;2022-07-12T13:36:03;27.10;1.00
9393;DHT22;4736;52.508;13.422;2022-07-12T13:39:06;27.30;1.00
9393;DHT22;4736;52.508;13.422;2022-07-12T13:42:26;27.40;1.00
9393;DHT22;4736;52.508;13.422;2022-07-12T13:45:38;27.20;1.00
9393;DHT22;4736;52.508;13.422;2022-07-12T13:48:41;27.10;1.00
9393;DHT22;4736;52.508;13.422;2022-07-12T13:51:44;27.00;1.00
9393;DHT22;4736;52.508;13.422;2022-07-12T13:54:47;27.10;1.00
9393;DHT22;4736;52.508;13.422;2022-07-12T13:57:49;27.00;1.00
9393;DHT22;4736;52.508;13.422;2022-07-12T14:00:54;27.20;1.00
9393;DHT22;4736;52.508;13.422;2022-07-12T14:03:57;27.50;1.00
9393;DHT22;4736;52.508;13.422;2022-07-12T14:07:00;27.60;1.00
9393;DHT22;4736;52.508;13.422;2022-07-12T14:10:04;27.70;1.00
9393;DHT22;4736;52.508;13.422;2022-07-12T14:13:07;27.90;1.00
9393;DHT22;4736;52.508;13.422;2022-07-12T14:16:13;27.90;1.00
9393;DHT22;4736;52.508;13.422;2022-07-12T14:19:16;28.00;1.00
9393;DHT22;4736;52.508;13.422;2022-07-12T14:22:19;28.10;1.00
9393;DHT22;4736;52.508;13.422;2022-07-12T14:25:22;28.10;1.00
9393;DHT22;4736;52.508;13.422;2022-07-12T14:28:25;28.00;1.00
9393;DHT22;4736;52.508;13.422;2022-07-12T14:31:29;27.70;1.00
9393;DHT22;4736;52.508;13.422;2022-07-12T14:34:33;27.80;1.00
9393;DHT22;4736;52.508;13.422;2022-07-12T14:37:37;27.90;1.00
9393;DHT22;4736;52.508;13.422;2022-07-12T14:40:40;28.00;1.00
9393;DHT22;4736;52.508;13.422;2022-07-12T14:43:49;28.10;1.00
9393;DHT22;4736;52.508;13.422;2022-07-12T14:46:53;28.00;1.00
9393;DHT22;4736;52.508;13.422;2022-07-12T14:49:56;28.10;1.00
9393;DHT22;4736;52.508;13.422;2022-07-12T14:52:59;28.30;1.00
9393;DHT22;4736;52.508;13.422;2022-07-12T14:56:02;28.30;1.00
9393;DHT22;4736;52.508;13.422;2022-07-12T14:59:05;28.30;1.00
9393;DHT22;4736;52.508;13.422;2022-07-12T15:02:10;28.20;1.00
9393;DHT22;4736;52.508;13.422;2022-07-12T15:05:13;28.20;1.00
9393;DHT22;4736;52.508;13.422;2022-07-12T15:08:16;28.40;1.00
9393;DHT22;4736;52.508;13.422;2022-07-12T15:11:19;28.40;1.00
9393;DHT22;4736;52.508;13.422;2022-07-12T15:14:22;28.40;1.00
9393;DHT22;4736;52.508;13.422;2022-07-12T15:17:26;28.40;1.00
9393;DHT22;4736;52.508;13.422;2022-07-12T15:20:29;28.30;1.00
9393;DHT22;4736;52.508;13.422;2022-07-12T15:23:35;28.30;1.00
9393;DHT22;4736;52.508;13.422;2022-07-12T15:26:38;28.10;1.00
9393;DHT22;4736;52.508;13.422;2022-07-12T15:29:41;28.10;1.00
9393;DHT22;4736;52.508;13.422;2022-07-12T15:32:45;28.00;1.00
9393;DHT22;4736;52.508;13.422;2022-07-12T15:35:54;27.90;1.00
9393;DHT22;4736;52.508;13.422;2022-07-12T15:38:58;27.90;1.00
9393;DHT22;4736;52.508;13.422;2022-07-12T15:42:00;27.90;1.00
9393;DHT22;4736;52.508;13.422;2022-07-12T15:45:06;27.90;1.00
9393;DHT22;4736;52.508;13.422;2022-07-12T15:48:11;27.90;1.00
9393;DHT22;4736;52.508;13.422;2022-07-12T15:51:14;27.90;1.00
9393;DHT22;4736;52.508;13.422;2022-07-12T15:54:19;28.00;1.00
9393;DHT22;4736;52.508;13.422;2022-07-12T15:57:21;28.00;1.00
9393;DHT22;4736;52.508;13.422;2022-07-12T16:00:25;28.00;1.00
9393;DHT22;4736;52.508;13.422;2022-07-12T16:03:29;28.00;1.00
9393;DHT22;4736;52.508;13.422;2022-07-12T16:06:32;27.80;1.00
9393;DHT22;4736;52.508;13.422;2022-07-12T16:09:37;27.70;1.00
9393;DHT22;4736;52.508;13.422;2022-07-12T16:12:39;27.50;1.00
9393;DHT22;4736;52.508;13.422;2022-07-12T16:15:42;27.40;1.00
9393;DHT22;4736;52.508;13.422;2022-07-12T16:18:47;27.40;1.00
9393;DHT22;4736;52.508;13.422;2022-07-12T16:21:50;27.40;1.00
9393;DHT22;4736;52.508;13.422;2022-07-12T16:24:53;27.40;1.00
9393;DHT22;4736;52.508;13.422;2022-07-12T16:27:59;27.30;1.00
9393;DHT22;4736;52.508;13.422;2022-07-12T16:31:03;27.20;1.00
9393;DHT22;4736;52.508;13.422;2022-07-12T16:34:07;27.10;1.00
9393;DHT22;4736;52.508;13.422;2022-07-12T16:37:13;27.00;1.00
9393;DHT22;4736;52.508;13.422;2022-07-12T16:40:16;26.90;1.00
9393;DHT22;4736;52.508;13.422;2022-07-12T16:43:19;26.80;1.00
9393;DHT22;4736;52.508;13.422;2022-07-12T16:46:22;26.70;1.00
9393;DHT22;4736;52.508;13.422;2022-07-12T16:49:27;26.70;1.00
9393;DHT22;4736;52.508;13.422;2022-07-12T16:52:30;26.70;1.00
9393;DHT22;4736;52.508;13.422;2022-07-12T16:55:34;26.60;1.00
9393;DHT22;4736;52.508;13.422;2022-07-12T16:58:37;26.60;1.00
9393;DHT22;4736;52.508;13.422;2022-07-12T17:01:41;26.50;1.00
9393;DHT22;4736;52.508;13.422;2022-07-12T17:04:46;26.50;1.00
9393;DHT22;4736;52.508;13.422;2022-07-12T17:07:49;26.50;1.00
9393;DHT22;4736;52.508;13.422;2022-07-12T17:10:58;26.50;1.00
9393;DHT22;4736;52.508;13.422;2022-07-12T17:14:01;26.40;1.00
9393;DHT22;4736;52.508;13.422;2022-07-12T17:17:04;26.40;1.00
9393;DHT22;4736;52.508;13.422;2022-07-12T17:20:10;26.30;1.00
9393;DHT22;4736;52.508;13.422;2022-07-12T17:23:13;26.10;1.00
9393;DHT22;4736;52.508;13.422;2022-07-12T17:26:16;26.00;1.00
9393;DHT22;4736;52.508;13.422;2022-07-12T17:29:19;26.00;1.00
9393;DHT22;4736;52.508;13.422;2022-07-12T17:32:21;25.90;1.00
9393;DHT22;4736;52.508;13.422;2022-07-12T17:35:26;26.00;1.00
9393;DHT22;4736;52.508;13.422;2022-07-12T17:38:29;25.90;1.00
9393;DHT22;4736;52.508;13.422;2022-07-12T17:41:32;25.80;1.00
9393;DHT22;4736;52.508;13.422;2022-07-12T17:44:35;25.70;1.00
9393;DHT22;4736;52.508;13.422;2022-07-12T17:47:39;25.70;1.00
9393;DHT22;4736;52.508;13.422;2022-07-12T17:50:44;25.60;1.00
9393;DHT22;4736;52.508;13.422;2022-07-12T17:53:55;25.50;1.00
9393;DHT22;4736;52.508;13.422;2022-07-12T17:56:58;25.50;1.00
9393;DHT22;4736;52.508;13.422;2022-07-12T18:00:01;25.50;1.00
9393;DHT22;4736;52.508;13.422;2022-07-12T18:03:04;25.40;1.00
9393;DHT22;4736;52.508;13.422;2022-07-12T18:06:10;25.50;1.00
9393;DHT22;4736;52.508;13.422;2022-07-12T18:09:13;25.30;1.00
9393;DHT22;4736;52.508;13.422;2022-07-12T18:12:16;25.30;1.00
9393;DHT22;4736;52.508;13.422;2022-07-12T18:15:36;25.20;1.00
9393;DHT22;4736;52.508;13.422;2022-07-12T18:18:39;25.20;1.00
9393;DHT22;4736;52.508;13.422;2022-07-12T18:21:44;25.20;1.00
9393;DHT22;4736;52.508;13.422;2022-07-12T18:24:47;25.20;1.00
9393;DHT22;4736;52.508;13.422;2022-07-12T18:27:50;25.10;1.00
9393;DHT22;4736;52.508;13.422;2022-07-12T18:30:55;25.10;1.00
9393;DHT22;4736;52.508;13.422;2022-07-12T18:33:59;25.00;1.00
9393;DHT22;4736;52.508;13.422;2022-07-12T18:37:07;25.00;1.00
9393;DHT22;4736;52.508;13.422;2022-07-12T18:40:10;25.00;1.00
9393;DHT22;4736;52.508;13.422;2022-07-12T18:43:13;24.90;1.00
9393;DHT22;4736;52.508;13.422;2022-07-12T18:46:15;24.80;1.00
9393;DHT22;4736;52.508;13.422;2022-07-12T18:49:21;24.80;1.00
9393;DHT22;4736;52.508;13.422;2022-07-12T18:52:25;24.80;1.00
9393;DHT22;4736;52.508;13.422;2022-07-12T18:55:29;24.60;1.00
9393;DHT22;4736;52.508;13.422;2022-07-12T18:58:31;24.60;1.00
9393;DHT22;4736;52.508;13.422;2022-07-12T19:01:34;24.50;1.00
9393;DHT22;4736;52.508;13.422;2022-07-12T19:04:37;24.50;1.00
9393;DHT22;4736;52.508;13.422;2022-07-12T19:07:43;24.50;1.00
9393;DHT22;4736;52.508;13.422;2022-07-12T19:10:46;24.40;1.00
9393;DHT22;4736;52.508;13.422;2022-07-12T19:13:55;24.30;1.00
9393;DHT22;4736;52.508;13.422;2022-07-12T19:16:58;24.20;1.00
9393;DHT22;4736;52.508;13.422;2022-07-12T19:20:01;24.10;1.00
9393;DHT22;4736;52.508;13.422;2022-07-12T19:23:09;24.10;1.00
9393;DHT22;4736;52.508;13.422;2022-07-12T19:26:12;24.00;1.00
9393;DHT22;4736;52.508;13.422;2022-07-12T19:29:41;23.90;1.00
9393;DHT22;4736;52.508;13.422;2022-07-12T19:32:44;23.90;1.00
9393;DHT22;4736;52.508;13.422;2022-07-12T19:35:47;23.80;1.00
9393;DHT22;4736;52.508;13.422;2022-07-12T19:38:52;23.70;1.00
9393;DHT22;4736;52.508;13.422;2022-07-12T19:41:55;23.60;1.00
9393;DHT22;4736;52.508;13.422;2022-07-12T19:44:58;23.60;1.00
9393;DHT22;4736;52.508;13.422;2022-07-12T19:48:01;23.50;1.00
9393;DHT22;4736;52.508;13.422;2022-07-12T19:51:04;23.50;1.00
9393;DHT22;4736;52.508;13.422;2022-07-12T19:54:09;23.50;1.00
9393;DHT22;4736;52.508;13.422;2022-07-12T19:57:15;23.40;1.00
9393;DHT22;4736;52.508;13.422;2022-07-12T20:00:20;23.30;1.00
9393;DHT22;4736;52.508;13.422;2022-07-12T20:03:22;23.30;1.00
9393;DHT22;4736;52.508;13.422;2022-07-12T20:06:26;23.20;1.00